Aviation Digital Data Service (ADDS)

Output produced by METARs form (0004 UTC 24 October 2019)
found at http://www.aviationweather.gov/metar/data/
 
Forecast for: UUEE (MOSCOW/SHEREMET', RU)
Text: TAF UUEE 232300Z 2400/2424 25004MPS 9999 BKN011 TX12/2412Z TN07/2403Z
Forecast period: 0000 UTC 24 October 2019 to 0000 UTC 25 October 2019
Forecast type: FROM: standard forecast or significant change
Winds: from the WSW (250 degrees) at 9 MPH (8 knots; 4.1 m/s)
Visibility: 6 or more miles 10+ km)
Ceiling: 1100 feet AGL
Clouds: broken clouds at 1100 feet AGL
Weather: no significant weather forecast for this period
Text: TEMPO 2400/2407 BKN004
Forecast period: 0000 to 0700 UTC 24 October 2019
Forecast type: TEMPORARY: The following changes expected for less than half the time period
Visibility: missing
Ceiling: 400 feet AGL
Clouds: broken clouds at 400 feet AGL
Weather: no significant weather forecast for this period